sensor_id;sensor_type;location;lat;lon;timestamp;pressure;altitude;pressure_sealevel;temperature;humidity
55010;BME280;40903;51.638;7.528;2023-03-19T00:01:29;100579.03;;;8.26;100.00
55010;BME280;40903;51.638;7.528;2023-03-19T00:03:55;100580.38;;;8.24;100.00
55010;BME280;40903;51.638;7.528;2023-03-19T00:06:20;100588.84;;;8.22;100.00
55010;BME280;40903;51.638;7.528;2023-03-19T00:08:46;100582.88;;;8.20;100.00
55010;BME280;40903;51.638;7.528;2023-03-19T00:11:12;100582.56;;;8.17;100.00
55010;BME280;40903;51.638;7.528;2023-03-19T00:13:38;100587.75;;;8.13;100.00
55010;BME280;40903;51.638;7.528;2023-03-19T00:16:04;100599.69;;;8.12;100.00
55010;BME280;40903;51.638;7.528;2023-03-19T00:18:29;100606.47;;;8.10;100.00
55010;BME280;40903;51.638;7.528;2023-03-19T00:20:54;100605.97;;;8.13;100.00
55010;BME280;40903;51.638;7.528;2023-03-19T00:23:20;100615.44;;;8.15;100.00
55010;BME280;40903;51.638;7.528;2023-03-19T00:25:45;100607.31;;;8.20;100.00
55010;BME280;40903;51.638;7.528;2023-03-19T00:28:10;100599.69;;;8.22;100.00
55010;BME280;40903;51.638;7.528;2023-03-19T00:30:36;100606.75;;;8.23;100.00
55010;BME280;40903;51.638;7.528;2023-03-19T00:33:01;100605.66;;;8.24;100.00
55010;BME280;40903;51.638;7.528;2023-03-19T00:35:26;100592.88;;;8.25;100.00
55010;BME280;40903;51.638;7.528;2023-03-19T00:37:52;100595.34;;;8.26;100.00
55010;BME280;40903;51.638;7.528;2023-03-19T00:40:18;100603.22;;;8.28;100.00
55010;BME280;40903;51.638;7.528;2023-03-19T00:42:43;100609.44;;;8.28;100.00
55010;BME280;40903;51.638;7.528;2023-03-19T00:45:09;100601.81;;;8.30;100.00
55010;BME280;40903;51.638;7.528;2023-03-19T00:47:35;100599.38;;;8.34;100.00
55010;BME280;40903;51.638;7.528;2023-03-19T00:50:01;100601.00;;;8.35;100.00
55010;BME280;40903;51.638;7.528;2023-03-19T00:52:26;100594.78;;;8.34;100.00
55010;BME280;40903;51.638;7.528;2023-03-19T00:54:51;100586.63;;;8.34;100.00
55010;BME280;40903;51.638;7.528;2023-03-19T00:57:16;100590.97;;;8.35;100.00
55010;BME280;40903;51.638;7.528;2023-03-19T00:59:41;100590.13;;;8.35;100.00
55010;BME280;40903;51.638;7.528;2023-03-19T01:02:07;100585.25;;;8.32;100.00
55010;BME280;40903;51.638;7.528;2023-03-19T01:04:32;100593.69;;;8.30;100.00
55010;BME280;40903;51.638;7.528;2023-03-19T01:06:57;100593.97;;;8.29;100.00
55010;BME280;40903;51.638;7.528;2023-03-19T01:09:24;100600.19;;;8.29;100.00
55010;BME280;40903;51.638;7.528;2023-03-19T01:11:49;100596.69;;;8.29;100.00
55010;BME280;40903;51.638;7.528;2023-03-19T01:14:15;100601.03;;;8.30;100.00
55010;BME280;40903;51.638;7.528;2023-03-19T01:16:41;100611.34;;;8.33;100.00
55010;BME280;40903;51.638;7.528;2023-03-19T01:19:06;100610.22;;;8.39;100.00
55010;BME280;40903;51.638;7.528;2023-03-19T01:21:32;100615.13;;;8.42;100.00
55010;BME280;40903;51.638;7.528;2023-03-19T01:23:58;100609.13;;;8.45;100.00
55010;BME280;40903;51.638;7.528;2023-03-19T01:26:24;100606.09;;;8.46;100.00
55010;BME280;40903;51.638;7.528;2023-03-19T01:28:49;100609.66;;;8.47;100.00
55010;BME280;40903;51.638;7.528;2023-03-19T01:31:14;100604.22;;;8.47;100.00
55010;BME280;40903;51.638;7.528;2023-03-19T01:33:39;100596.31;;;8.45;100.00
55010;BME280;40903;51.638;7.528;2023-03-19T01:36:05;100602.84;;;8.44;100.00
55010;BME280;40903;51.638;7.528;2023-03-19T01:38:30;100598.81;;;8.42;100.00
55010;BME280;40903;51.638;7.528;2023-03-19T01:40:56;100585.22;;;8.37;100.00
55010;BME280;40903;51.638;7.528;2023-03-19T01:43:22;100594.22;;;8.32;100.00
55010;BME280;40903;51.638;7.528;2023-03-19T01:45:58;100593.72;;;8.25;100.00
55010;BME280;40903;51.638;7.528;2023-03-19T01:48:28;100594.00;;;8.19;100.00
55010;BME280;40903;51.638;7.528;2023-03-19T01:50:56;100588.56;;;8.14;100.00
55010;BME280;40903;51.638;7.528;2023-03-19T01:53:22;100582.34;;;8.08;100.00
55010;BME280;40903;51.638;7.528;2023-03-19T01:55:48;100585.88;;;8.04;100.00
55010;BME280;40903;51.638;7.528;2023-03-19T01:58:14;100581.28;;;7.99;100.00
55010;BME280;40903;51.638;7.528;2023-03-19T02:00:40;100584.28;;;7.93;100.00
55010;BME280;40903;51.638;7.528;2023-03-19T02:03:06;100590.53;;;7.88;100.00
55010;BME280;40903;51.638;7.528;2023-03-19T02:05:31;100589.75;;;7.83;100.00
55010;BME280;40903;51.638;7.528;2023-03-19T02:07:58;100593.28;;;7.78;100.00
55010;BME280;40903;51.638;7.528;2023-03-19T02:10:25;100597.66;;;7.74;100.00
55010;BME280;40903;51.638;7.528;2023-03-19T02:12:51;100594.66;;;7.71;100.00
55010;BME280;40903;51.638;7.528;2023-03-19T02:15:16;100590.59;;;7.68;100.00
55010;BME280;40903;51.638;7.528;2023-03-19T02:17:42;100595.72;;;7.65;100.00
55010;BME280;40903;51.638;7.528;2023-03-19T02:20:12;100590.06;;;7.62;100.00
55010;BME280;40903;51.638;7.528;2023-03-19T02:22:50;100596.31;;;7.57;100.00
55010;BME280;40903;51.638;7.528;2023-03-19T02:25:26;100596.03;;;7.54;100.00
55010;BME280;40903;51.638;7.528;2023-03-19T02:27:52;100590.88;;;7.47;100.00
55010;BME280;40903;51.638;7.528;2023-03-19T02:30:19;100585.72;;;7.41;100.00
55010;BME280;40903;51.638;7.528;2023-03-19T02:32:45;100591.16;;;7.36;100.00
55010;BME280;40903;51.638;7.528;2023-03-19T02:38:13;100589.28;;;7.26;100.00
55010;BME280;40903;51.638;7.528;2023-03-19T02:40:53;100582.78;;;7.22;100.00
55010;BME280;40903;51.638;7.528;2023-03-19T02:43:21;100572.75;;;7.18;100.00
55010;BME280;40903;51.638;7.528;2023-03-19T02:45:47;100572.19;;;7.16;100.00
55010;BME280;40903;51.638;7.528;2023-03-19T02:48:12;100570.31;;;7.11;100.00
55010;BME280;40903;51.638;7.528;2023-03-19T02:50:37;100586.03;;;7.09;100.00
55010;BME280;40903;51.638;7.528;2023-03-19T02:53:02;100576.25;;;7.03;100.00
55010;BME280;40903;51.638;7.528;2023-03-19T02:55:28;100581.41;;;7.00;100.00
55010;BME280;40903;51.638;7.528;2023-03-19T02:57:53;100580.84;;;6.98;100.00
55010;BME280;40903;51.638;7.528;2023-03-19T03:00:19;100588.44;;;6.96;100.00
55010;BME280;40903;51.638;7.528;2023-03-19T03:02:44;100576.53;;;6.92;100.00
55010;BME280;40903;51.638;7.528;2023-03-19T03:05:10;100575.44;;;6.88;100.00
55010;BME280;40903;51.638;7.528;2023-03-19T03:07:35;100580.56;;;6.84;100.00
55010;BME280;40903;51.638;7.528;2023-03-19T03:10:01;100582.19;;;6.80;100.00
55010;BME280;40903;51.638;7.528;2023-03-19T03:12:27;100583.84;;;6.76;100.00
55010;BME280;40903;51.638;7.528;2023-03-19T03:14:52;100582.72;;;6.72;100.00
55010;BME280;40903;51.638;7.528;2023-03-19T03:17:17;100583.25;;;6.69;100.00
55010;BME280;40903;51.638;7.528;2023-03-19T03:19:43;100586.50;;;6.66;100.00
55010;BME280;40903;51.638;7.528;2023-03-19T03:22:08;100576.47;;;6.62;100.00
55010;BME280;40903;51.638;7.528;2023-03-19T03:24:34;100579.97;;;6.57;100.00
55010;BME280;40903;51.638;7.528;2023-03-19T03:26:59;100582.13;;;6.55;100.00
55010;BME280;40903;51.638;7.528;2023-03-19T03:29:24;100587.00;;;6.53;100.00
55010;BME280;40903;51.638;7.528;2023-03-19T03:31:50;100585.63;;;6.51;100.00
55010;BME280;40903;51.638;7.528;2023-03-19T03:34:15;100597.56;;;6.50;100.00
55010;BME280;40903;51.638;7.528;2023-03-19T03:36:41;100592.44;;;6.48;100.00
55010;BME280;40903;51.638;7.528;2023-03-19T03:39:06;100599.47;;;6.49;100.00
55010;BME280;40903;51.638;7.528;2023-03-19T03:41:31;100592.69;;;6.47;100.00
55010;BME280;40903;51.638;7.528;2023-03-19T03:43:57;100595.38;;;6.47;100.00
55010;BME280;40903;51.638;7.528;2023-03-19T03:46:22;100594.31;;;6.48;100.00
55010;BME280;40903;51.638;7.528;2023-03-19T03:48:48;100597.84;;;6.48;100.00
55010;BME280;40903;51.638;7.528;2023-03-19T03:51:15;100581.31;;;6.50;100.00
55010;BME280;40903;51.638;7.528;2023-03-19T03:53:40;100588.34;;;6.51;100.00
55010;BME280;40903;51.638;7.528;2023-03-19T03:56:06;100581.84;;;6.52;100.00
55010;BME280;40903;51.638;7.528;2023-03-19T03:58:34;100598.94;;;6.57;100.00
55010;BME280;40903;51.638;7.528;2023-03-19T04:00:59;100589.47;;;6.60;100.00
55010;BME280;40903;51.638;7.528;2023-03-19T04:03:24;100593.56;;;6.62;100.00
55010;BME280;40903;51.638;7.528;2023-03-19T04:05:50;100590.31;;;6.65;100.00
55010;BME280;40903;51.638;7.528;2023-03-19T04:08:15;100593.28;;;6.69;100.00
55010;BME280;40903;51.638;7.528;2023-03-19T04:10:41;100597.88;;;6.73;100.00
55010;BME280;40903;51.638;7.528;2023-03-19T04:13:10;100602.25;;;6.79;100.00
55010;BME280;40903;51.638;7.528;2023-03-19T04:15:35;100597.91;;;6.83;100.00
55010;BME280;40903;51.638;7.528;2023-03-19T04:18:00;100595.50;;;6.87;100.00
55010;BME280;40903;51.638;7.528;2023-03-19T04:20:26;100589.53;;;6.90;100.00
55010;BME280;40903;51.638;7.528;2023-03-19T04:22:51;100593.31;;;6.94;100.00
55010;BME280;40903;51.638;7.528;2023-03-19T04:25:17;100594.16;;;6.99;100.00
55010;BME280;40903;51.638;7.528;2023-03-19T04:27:42;100594.69;;;7.01;100.00
55010;BME280;40903;51.638;7.528;2023-03-19T04:30:08;100592.78;;;7.07;100.00
55010;BME280;40903;51.638;7.528;2023-03-19T04:32:34;100599.28;;;7.11;100.00
55010;BME280;40903;51.638;7.528;2023-03-19T04:34:59;100605.53;;;7.16;100.00
55010;BME280;40903;51.638;7.528;2023-03-19T04:37:24;100605.81;;;7.20;100.00
55010;BME280;40903;51.638;7.528;2023-03-19T04:39:50;100601.47;;;7.24;100.00
55010;BME280;40903;51.638;7.528;2023-03-19T04:42:15;100608.25;;;7.26;100.00
55010;BME280;40903;51.638;7.528;2023-03-19T04:44:41;100595.78;;;7.30;100.00
55010;BME280;40903;51.638;7.528;2023-03-19T04:47:06;100598.22;;;7.32;100.00
55010;BME280;40903;51.638;7.528;2023-03-19T04:49:32;100609.31;;;7.35;100.00
55010;BME280;40903;51.638;7.528;2023-03-19T04:51:57;100605.28;;;7.38;100.00
55010;BME280;40903;51.638;7.528;2023-03-19T04:54:23;100606.34;;;7.42;100.00
55010;BME280;40903;51.638;7.528;2023-03-19T04:56:49;100614.75;;;7.45;100.00
55010;BME280;40903;51.638;7.528;2023-03-19T04:59:15;100613.41;;;7.48;100.00
55010;BME280;40903;51.638;7.528;2023-03-19T05:01:41;100610.41;;;7.49;100.00
55010;BME280;40903;51.638;7.528;2023-03-19T05:04:06;100615.56;;;7.51;100.00
55010;BME280;40903;51.638;7.528;2023-03-19T05:06:32;100627.50;;;7.55;100.00
55010;BME280;40903;51.638;7.528;2023-03-19T05:08:57;100622.91;;;7.55;100.00
55010;BME280;40903;51.638;7.528;2023-03-19T05:11:23;100625.31;;;7.57;100.00
55010;BME280;40903;51.638;7.528;2023-03-19T05:13:48;100632.66;;;7.56;100.00
55010;BME280;40903;51.638;7.528;2023-03-19T05:16:14;100635.09;;;7.58;100.00
55010;BME280;40903;51.638;7.528;2023-03-19T05:18:39;100635.38;;;7.61;100.00
55010;BME280;40903;51.638;7.528;2023-03-19T05:21:05;100635.91;;;7.63;100.00
55010;BME280;40903;51.638;7.528;2023-03-19T05:23:30;100635.38;;;7.61;100.00
55010;BME280;40903;51.638;7.528;2023-03-19T05:25:59;100631.84;;;7.61;100.00
55010;BME280;40903;51.638;7.528;2023-03-19T05:28:27;100631.56;;;7.62;100.00
55010;BME280;40903;51.638;7.528;2023-03-19T05:30:53;100633.47;;;7.62;100.00
55010;BME280;40903;51.638;7.528;2023-03-19T05:33:19;100635.38;;;7.61;100.00
55010;BME280;40903;51.638;7.528;2023-03-19T05:35:44;100636.19;;;7.62;100.00
55010;BME280;40903;51.638;7.528;2023-03-19T05:38:10;100640.00;;;7.61;100.00
55010;BME280;40903;51.638;7.528;2023-03-19T05:40:35;100640.00;;;7.61;100.00
55010;BME280;40903;51.638;7.528;2023-03-19T05:43:01;100652.47;;;7.62;100.00
55010;BME280;40903;51.638;7.528;2023-03-19T05:45:26;100649.47;;;7.63;100.00
55010;BME280;40903;51.638;7.528;2023-03-19T05:47:52;100653.28;;;7.62;100.00
55010;BME280;40903;51.638;7.528;2023-03-19T05:50:18;100651.38;;;7.63;100.00
55010;BME280;40903;51.638;7.528;2023-03-19T05:52:43;100657.88;;;7.67;100.00
55010;BME280;40903;51.638;7.528;2023-03-19T05:55:08;100660.06;;;7.69;100.00
55010;BME280;40903;51.638;7.528;2023-03-19T05:57:34;100663.31;;;7.71;100.00
55010;BME280;40903;51.638;7.528;2023-03-19T06:00:02;100652.97;;;7.73;100.00
55010;BME280;40903;51.638;7.528;2023-03-19T06:02:29;100658.97;;;7.75;100.00
55010;BME280;40903;51.638;7.528;2023-03-19T06:04:54;100655.72;;;7.78;100.00
55010;BME280;40903;51.638;7.528;2023-03-19T06:07:19;100657.88;;;7.81;100.00
55010;BME280;40903;51.638;7.528;2023-03-19T06:09:45;100654.91;;;7.83;100.00
55010;BME280;40903;51.638;7.528;2023-03-19T06:12:10;100660.03;;;7.84;100.00
55010;BME280;40903;51.638;7.528;2023-03-19T06:14:35;100657.84;;;7.86;100.00
55010;BME280;40903;51.638;7.528;2023-03-19T06:17:01;100660.06;;;7.89;100.00
55010;BME280;40903;51.638;7.528;2023-03-19T06:19:27;100667.09;;;7.90;100.00
55010;BME280;40903;51.638;7.528;2023-03-19T06:21:52;100666.56;;;7.93;100.00
55010;BME280;40903;51.638;7.528;2023-03-19T06:24:18;100673.31;;;7.96;100.00
55010;BME280;40903;51.638;7.528;2023-03-19T06:26:43;100669.78;;;8.05;100.00
55010;BME280;40903;51.638;7.528;2023-03-19T06:29:08;100678.72;;;8.16;100.00
55010;BME280;40903;51.638;7.528;2023-03-19T06:31:34;100674.94;;;8.27;100.00
55010;BME280;40903;51.638;7.528;2023-03-19T06:33:59;100673.53;;;8.39;100.00
55010;BME280;40903;51.638;7.528;2023-03-19T06:36:25;100680.00;;;8.53;100.00
55010;BME280;40903;51.638;7.528;2023-03-19T06:38:51;100683.44;;;8.69;100.00
55010;BME280;40903;51.638;7.528;2023-03-19T06:41:16;100683.69;;;8.82;100.00
55010;BME280;40903;51.638;7.528;2023-03-19T06:43:42;100688.22;;;8.97;100.00
55010;BME280;40903;51.638;7.528;2023-03-19T06:46:07;100696.03;;;9.08;100.00
55010;BME280;40903;51.638;7.528;2023-03-19T06:48:33;100696.22;;;9.22;100.00
55010;BME280;40903;51.638;7.528;2023-03-19T06:50:59;100701.06;;;9.35;100.00
55010;BME280;40903;51.638;7.528;2023-03-19T06:53:25;100699.84;;;9.51;100.00
55010;BME280;40903;51.638;7.528;2023-03-19T06:55:51;100706.53;;;9.63;100.00
55010;BME280;40903;51.638;7.528;2023-03-19T06:58:16;100705.63;;;9.77;100.00
55010;BME280;40903;51.638;7.528;2023-03-19T07:00:42;100710.38;;;9.90;100.00
55010;BME280;40903;51.638;7.528;2023-03-19T07:03:08;100723.63;;;10.07;100.00
55010;BME280;40903;51.638;7.528;2023-03-19T07:05:34;100721.41;;;10.14;100.00
55010;BME280;40903;51.638;7.528;2023-03-19T07:07:59;100716.69;;;10.19;100.00
55010;BME280;40903;51.638;7.528;2023-03-19T07:10:25;100722.03;;;10.29;100.00
55010;BME280;40903;51.638;7.528;2023-03-19T07:12:50;100726.88;;;10.37;100.00
55010;BME280;40903;51.638;7.528;2023-03-19T07:15:15;100727.28;;;10.49;100.00
55010;BME280;40903;51.638;7.528;2023-03-19T07:17:44;100730.41;;;10.61;100.00
55010;BME280;40903;51.638;7.528;2023-03-19T07:20:10;100730.00;;;10.73;100.00
55010;BME280;40903;51.638;7.528;2023-03-19T07:22:36;100725.63;;;10.77;100.00
55010;BME280;40903;51.638;7.528;2023-03-19T07:25:01;100728.72;;;10.89;100.00
55010;BME280;40903;51.638;7.528;2023-03-19T07:27:26;100731.41;;;10.94;100.00
55010;BME280;40903;51.638;7.528;2023-03-19T07:29:53;100731.84;;;11.01;100.00
55010;BME280;40903;51.638;7.528;2023-03-19T07:32:20;100735.03;;;11.08;100.00
55010;BME280;40903;51.638;7.528;2023-03-19T07:34:46;100741.81;;;11.10;100.00
55010;BME280;40903;51.638;7.528;2023-03-19T07:37:14;100741.25;;;11.13;100.00
55010;BME280;40903;51.638;7.528;2023-03-19T07:39:42;100742.03;;;11.14;100.00
55010;BME280;40903;51.638;7.528;2023-03-19T07:42:08;100733.50;;;11.20;100.00
55010;BME280;40903;51.638;7.528;2023-03-19T07:44:33;100743.53;;;11.25;100.00
55010;BME280;40903;51.638;7.528;2023-03-19T07:46:59;100746.13;;;11.35;100.00
55010;BME280;40903;51.638;7.528;2023-03-19T07:49:25;100743.47;;;11.48;100.00
55010;BME280;40903;51.638;7.528;2023-03-19T07:51:50;100743.66;;;11.57;100.00
55010;BME280;40903;51.638;7.528;2023-03-19T07:54:16;100751.09;;;11.70;100.00
55010;BME280;40903;51.638;7.528;2023-03-19T07:56:42;100752.78;;;11.84;100.00
55010;BME280;40903;51.638;7.528;2023-03-19T07:59:08;100751.63;;;12.03;100.00
55010;BME280;40903;51.638;7.528;2023-03-19T08:01:35;100756.75;;;12.23;100.00
55010;BME280;40903;51.638;7.528;2023-03-19T08:04:00;100758.31;;;12.43;100.00
55010;BME280;40903;51.638;7.528;2023-03-19T08:06:26;100760.16;;;12.47;100.00
55010;BME280;40903;51.638;7.528;2023-03-19T08:08:51;100757.63;;;12.51;100.00
55010;BME280;40903;51.638;7.528;2023-03-19T08:11:16;100755.19;;;12.49;100.00
55010;BME280;40903;51.638;7.528;2023-03-19T08:13:42;100761.09;;;12.56;100.00
55010;BME280;40903;51.638;7.528;2023-03-19T08:16:07;100756.19;;;12.53;100.00
55010;BME280;40903;51.638;7.528;2023-03-19T08:18:34;100759.34;;;12.60;100.00
55010;BME280;40903;51.638;7.528;2023-03-19T08:21:00;100753.50;;;12.67;100.00
55010;BME280;40903;51.638;7.528;2023-03-19T08:23:25;100752.78;;;12.75;100.00
55010;BME280;40903;51.638;7.528;2023-03-19T08:25:51;100758.19;;;12.93;100.00
55010;BME280;40903;51.638;7.528;2023-03-19T08:28:17;100757.88;;;13.08;100.00
55010;BME280;40903;51.638;7.528;2023-03-19T08:30:42;100766.59;;;13.10;100.00
55010;BME280;40903;51.638;7.528;2023-03-19T08:33:08;100771.06;;;13.06;100.00
55010;BME280;40903;51.638;7.528;2023-03-19T08:35:33;100774.09;;;13.05;100.00
55010;BME280;40903;51.638;7.528;2023-03-19T08:37:58;100777.75;;;13.00;100.00
55010;BME280;40903;51.638;7.528;2023-03-19T08:40:24;100782.19;;;12.96;100.00
55010;BME280;40903;51.638;7.528;2023-03-19T08:42:49;100777.72;;;12.87;100.00
55010;BME280;40903;51.638;7.528;2023-03-19T08:45:15;100787.22;;;12.76;100.00
55010;BME280;40903;51.638;7.528;2023-03-19T08:47:40;100790.91;;;12.71;100.00
55010;BME280;40903;51.638;7.528;2023-03-19T08:50:06;100792.31;;;12.69;100.00
55010;BME280;40903;51.638;7.528;2023-03-19T08:52:32;100799.59;;;12.73;100.00
55010;BME280;40903;51.638;7.528;2023-03-19T08:54:57;100802.03;;;12.75;100.00
55010;BME280;40903;51.638;7.528;2023-03-19T08:57:22;100805.81;;;12.79;100.00
55010;BME280;40903;51.638;7.528;2023-03-19T08:59:48;100797.19;;;12.85;100.00
55010;BME280;40903;51.638;7.528;2023-03-19T09:02:13;100802.66;;;12.85;100.00
55010;BME280;40903;51.638;7.528;2023-03-19T09:04:39;100802.06;;;12.88;100.00
55010;BME280;40903;51.638;7.528;2023-03-19T09:07:05;100799.25;;;12.93;100.00
55010;BME280;40903;51.638;7.528;2023-03-19T09:09:30;100802.81;;;12.94;100.00
55010;BME280;40903;51.638;7.528;2023-03-19T09:11:55;100798.63;;;12.96;100.00
55010;BME280;40903;51.638;7.528;2023-03-19T09:14:21;100803.06;;;12.92;100.00
55010;BME280;40903;51.638;7.528;2023-03-19T09:16:47;100806.34;;;12.94;100.00
55010;BME280;40903;51.638;7.528;2023-03-19T09:19:13;100806.91;;;12.91;100.00
55010;BME280;40903;51.638;7.528;2023-03-19T09:21:38;100809.16;;;12.89;100.00
55010;BME280;40903;51.638;7.528;2023-03-19T09:24:04;100810.78;;;12.90;100.00
55010;BME280;40903;51.638;7.528;2023-03-19T09:26:29;100815.06;;;12.96;100.00
55010;BME280;40903;51.638;7.528;2023-03-19T09:28:54;100812.75;;;13.03;100.00
55010;BME280;40903;51.638;7.528;2023-03-19T09:31:23;100815.06;;;12.96;100.00
55010;BME280;40903;51.638;7.528;2023-03-19T09:33:49;100812.94;;;12.93;100.00
55010;BME280;40903;51.638;7.528;2023-03-19T09:36:14;100810.06;;;12.98;100.00
55010;BME280;40903;51.638;7.528;2023-03-19T09:38:40;100817.28;;;12.94;100.00
55010;BME280;40903;51.638;7.528;2023-03-19T09:41:09;100816.09;;;13.00;99.78
55010;BME280;40903;51.638;7.528;2023-03-19T09:46:03;100824.59;;;13.12;99.68
55010;BME280;40903;51.638;7.528;2023-03-19T09:48:38;100816.28;;;13.17;98.60
55010;BME280;40903;51.638;7.528;2023-03-19T09:51:05;100816.88;;;13.28;99.30
55010;BME280;40903;51.638;7.528;2023-03-19T09:53:38;100823.56;;;13.35;100.00
55010;BME280;40903;51.638;7.528;2023-03-19T09:56:06;100832.69;;;13.44;99.17
55010;BME280;40903;51.638;7.528;2023-03-19T09:58:33;100830.22;;;13.56;94.78
55010;BME280;40903;51.638;7.528;2023-03-19T10:00:59;100833.59;;;13.53;94.26
55010;BME280;40903;51.638;7.528;2023-03-19T10:06:18;100838.38;;;13.61;94.72
55010;BME280;40903;51.638;7.528;2023-03-19T10:08:53;100831.34;;;13.69;94.97
55010;BME280;40903;51.638;7.528;2023-03-19T10:13:58;100841.22;;;13.91;94.23
55010;BME280;40903;51.638;7.528;2023-03-19T10:16:26;100844.16;;;13.95;91.50
55010;BME280;40903;51.638;7.528;2023-03-19T10:18:54;100836.00;;;14.03;91.88
55010;BME280;40903;51.638;7.528;2023-03-19T10:24:10;100829.69;;;14.16;93.03
55010;BME280;40903;51.638;7.528;2023-03-19T10:26:41;100839.13;;;14.24;90.25
55010;BME280;40903;51.638;7.528;2023-03-19T10:29:09;100837.56;;;14.31;90.78
55010;BME280;40903;51.638;7.528;2023-03-19T10:34:20;100833.94;;;14.44;88.31
55010;BME280;40903;51.638;7.528;2023-03-19T10:36:47;100838.47;;;14.49;88.65
55010;BME280;40903;51.638;7.528;2023-03-19T10:39:13;100838.66;;;14.52;88.17
55010;BME280;40903;51.638;7.528;2023-03-19T10:41:45;100844.09;;;14.66;88.51
55010;BME280;40903;51.638;7.528;2023-03-19T10:46:57;100838.47;;;14.71;86.14
55010;BME280;40903;51.638;7.528;2023-03-19T10:49:23;100841.09;;;14.84;86.27
55010;BME280;40903;51.638;7.528;2023-03-19T10:51:49;100843.78;;;14.98;85.19
55010;BME280;40903;51.638;7.528;2023-03-19T10:54:22;100840.91;;;15.11;84.32
55010;BME280;40903;51.638;7.528;2023-03-19T10:56:48;100844.06;;;15.27;86.82
55010;BME280;40903;51.638;7.528;2023-03-19T10:59:21;100849.63;;;15.44;87.58
55010;BME280;40903;51.638;7.528;2023-03-19T11:01:47;100844.34;;;15.56;83.39
55010;BME280;40903;51.638;7.528;2023-03-19T11:06:38;100853.41;;;15.73;82.42
55010;BME280;40903;51.638;7.528;2023-03-19T11:13:57;100854.44;;;16.19;79.15
55010;BME280;40903;51.638;7.528;2023-03-19T11:16:25;100855.38;;;16.32;77.81
55010;BME280;40903;51.638;7.528;2023-03-19T11:18:50;100846.50;;;16.60;81.27
55010;BME280;40903;51.638;7.528;2023-03-19T11:21:28;100845.09;;;16.92;80.69
55010;BME280;40903;51.638;7.528;2023-03-19T11:24:00;100840.59;;;17.25;76.21
55010;BME280;40903;51.638;7.528;2023-03-19T11:26:26;100832.41;;;17.45;74.26
55010;BME280;40903;51.638;7.528;2023-03-19T11:28:53;100839.03;;;17.53;73.70
55010;BME280;40903;51.638;7.528;2023-03-19T11:31:26;100837.59;;;17.47;68.99
55010;BME280;40903;51.638;7.528;2023-03-19T11:34:07;100841.31;;;17.51;68.80
55010;BME280;40903;51.638;7.528;2023-03-19T11:39:55;100836.03;;;17.37;70.69
55010;BME280;40903;51.638;7.528;2023-03-19T11:42:05;100837.84;;;17.25;68.38
55010;BME280;40903;51.638;7.528;2023-03-19T11:52:32;100834.88;;;17.01;67.26
55010;BME280;40903;51.638;7.528;2023-03-19T11:55:02;100834.44;;;17.28;69.27
55010;BME280;40903;51.638;7.528;2023-03-19T11:57:39;100829.13;;;17.52;68.80
55010;BME280;40903;51.638;7.528;2023-03-19T12:00:32;100831.66;;;17.65;65.38
55010;BME280;40903;51.638;7.528;2023-03-19T12:03:17;100835.84;;;17.42;62.72
55010;BME280;40903;51.638;7.528;2023-03-19T12:08:27;100837.72;;;17.21;66.14
55010;BME280;40903;51.638;7.528;2023-03-19T12:10:57;100836.09;;;17.12;65.82
55010;BME280;40903;51.638;7.528;2023-03-19T12:13:41;100837.09;;;17.16;66.76
55010;BME280;40903;51.638;7.528;2023-03-19T12:23:34;100837.59;;;17.76;63.63
55010;BME280;40903;51.638;7.528;2023-03-19T12:26:08;100836.38;;;17.65;64.78
55010;BME280;40903;51.638;7.528;2023-03-19T12:33:54;100820.72;;;17.48;64.71
55010;BME280;40903;51.638;7.528;2023-03-19T12:36:28;100823.00;;;17.46;66.15
55010;BME280;40903;51.638;7.528;2023-03-19T12:39:09;100821.25;;;17.33;66.16
55010;BME280;40903;51.638;7.528;2023-03-19T12:41:38;100819.88;;;17.19;67.93
55010;BME280;40903;51.638;7.528;2023-03-19T12:44:08;100820.88;;;17.14;68.40
55010;BME280;40903;51.638;7.528;2023-03-19T12:46:37;100819.81;;;16.98;67.78
55010;BME280;40903;51.638;7.528;2023-03-19T12:49:08;100818.72;;;16.82;69.82
55010;BME280;40903;51.638;7.528;2023-03-19T12:51:38;100824.75;;;16.67;69.72
55010;BME280;40903;51.638;7.528;2023-03-19T12:54:12;100831.44;;;16.32;70.66
55010;BME280;40903;51.638;7.528;2023-03-19T12:56:41;100836.31;;;16.10;73.15
55010;BME280;40903;51.638;7.528;2023-03-19T13:01:49;100843.06;;;15.70;77.25
55010;BME280;40903;51.638;7.528;2023-03-19T13:04:18;100847.56;;;15.58;78.10
55010;BME280;40903;51.638;7.528;2023-03-19T13:06:49;100853.19;;;15.44;80.52
55010;BME280;40903;51.638;7.528;2023-03-19T13:09:20;100852.91;;;15.24;80.75
55010;BME280;40903;51.638;7.528;2023-03-19T13:12:04;100850.94;;;15.16;79.15
55010;BME280;40903;51.638;7.528;2023-03-19T13:14:42;100855.56;;;14.98;79.78
55010;BME280;40903;51.638;7.528;2023-03-19T13:17:27;100864.88;;;14.89;82.99
55010;BME280;40903;51.638;7.528;2023-03-19T13:19:55;100871.53;;;14.66;86.91
55010;BME280;40903;51.638;7.528;2023-03-19T13:22:23;100868.84;;;14.52;90.06
55010;BME280;40903;51.638;7.528;2023-03-19T13:24:59;100865.41;;;14.25;94.17
55010;BME280;40903;51.638;7.528;2023-03-19T13:27:29;100858.50;;;14.14;96.02
55010;BME280;40903;51.638;7.528;2023-03-19T13:29:59;100854.28;;;14.08;98.19
55010;BME280;40903;51.638;7.528;2023-03-19T13:32:44;100861.47;;;14.04;99.61
55010;BME280;40903;51.638;7.528;2023-03-19T13:37:40;100857.72;;;14.13;100.00
55010;BME280;40903;51.638;7.528;2023-03-19T13:40:34;100852.34;;;14.22;100.00
55010;BME280;40903;51.638;7.528;2023-03-19T13:42:55;100850.94;;;14.33;100.00
55010;BME280;40903;51.638;7.528;2023-03-19T13:45:28;100860.34;;;14.40;100.00